createdAt,value
2023-01-07T00:05:01.370Z,67.32
2023-01-07T00:10:06.095Z,67.57
2023-01-07T00:15:08.877Z,67.69
2023-01-07T00:20:11.421Z,67.58
2023-01-07T00:25:13.800Z,67.47
2023-01-07T00:30:16.116Z,67.58
2023-01-07T00:35:24.654Z,67.49
2023-01-07T00:40:27.045Z,67.25
2023-01-07T00:45:31.656Z,67.33
2023-01-07T00:50:36.468Z,67.45
2023-01-07T00:55:39.219Z,67.52
2023-01-07T01:00:41.694Z,67.58
2023-01-07T01:05:44.094Z,67.72
2023-01-07T01:10:46.537Z,67.59
2023-01-07T01:15:49.562Z,67.54
2023-01-07T01:20:52.033Z,67.56
2023-01-07T01:26:11.287Z,67.32
2023-01-07T01:31:13.839Z,67.48
2023-01-07T01:36:22.878Z,67.45
2023-01-07T01:41:27.283Z,67.41
2023-01-07T01:46:36.582Z,67.53
2023-01-07T01:51:42.243Z,67.50
2023-01-07T01:56:46.019Z,67.27
2023-01-07T02:01:48.804Z,67.28
2023-01-07T02:06:59.310Z,67.24
2023-01-07T02:12:15.193Z,67.29
2023-01-07T02:17:36.366Z,67.32
2023-01-07T02:23:04.558Z,67.57
2023-01-07T02:28:28.289Z,67.30
2023-01-07T02:33:34.450Z,67.36
2023-01-07T02:38:48.664Z,67.30
2023-01-07T02:44:15.101Z,67.20
2023-01-07T02:49:18.525Z,67.41
2023-01-07T02:54:25.855Z,67.28
2023-01-07T02:59:56.117Z,67.56
2023-01-07T03:05:13.660Z,67.47
2023-01-07T03:10:50.797Z,67.11
2023-01-07T03:15:53.538Z,67.40
2023-01-07T03:21:00.117Z,67.53
2023-01-07T03:26:04.991Z,67.20
2023-01-07T03:31:10.217Z,67.42
2023-01-07T03:36:14.308Z,67.24
2023-01-07T03:41:36.612Z,67.23
2023-01-07T03:46:40.399Z,67.26
2023-01-07T03:51:42.707Z,67.50
2023-01-07T03:56:45.137Z,67.55
2023-01-07T04:01:48.042Z,67.59
2023-01-07T04:06:51.392Z,67.26
2023-01-07T04:11:53.896Z,67.26
2023-01-07T04:16:56.303Z,67.27
2023-01-07T04:21:58.684Z,67.17
2023-01-07T04:27:01.106Z,67.32
2023-01-07T04:32:03.626Z,67.10
2023-01-07T04:37:07.807Z,67.42
2023-01-07T04:42:10.927Z,67.27
2023-01-07T04:47:13.472Z,67.31
2023-01-07T04:52:15.943Z,67.09
2023-01-07T04:57:18.581Z,67.15
2023-01-07T05:02:21.685Z,67.32
2023-01-07T05:07:24.190Z,67.40
2023-01-07T05:12:27.661Z,67.30
2023-01-07T05:17:30.143Z,67.03
2023-01-07T05:22:32.903Z,67.25
2023-01-07T05:27:35.348Z,67.34
2023-01-07T05:32:38.969Z,66.96
2023-01-07T05:37:41.504Z,67.25
2023-01-07T05:42:44.454Z,67.00
2023-01-07T05:47:46.954Z,67.09
2023-01-07T05:52:51.212Z,66.89
2023-01-07T05:57:53.487Z,67.07
2023-01-07T06:02:55.807Z,67.19
2023-01-07T06:07:58.300Z,67.08
2023-01-07T06:13:02.848Z,67.21
2023-01-07T06:18:05.157Z,66.98
2023-01-07T06:23:07.351Z,67.10
2023-01-07T06:28:09.557Z,67.21
2023-01-07T06:33:12.335Z,67.13
2023-01-07T06:38:14.759Z,66.92
2023-01-07T06:43:17.075Z,67.13
2023-01-07T06:48:19.443Z,66.96
2023-01-07T06:53:21.638Z,67.17
2023-01-07T06:58:23.894Z,67.29
2023-01-07T07:03:26.124Z,67.27
2023-01-07T07:08:28.528Z,67.29
2023-01-07T07:13:30.741Z,67.37
2023-01-07T07:18:33.159Z,67.17
2023-01-07T07:23:35.399Z,67.16
2023-01-07T07:28:37.983Z,67.33
2023-01-07T07:33:40.200Z,67.33
2023-01-07T07:38:42.482Z,67.60
2023-01-07T07:43:44.745Z,67.65
2023-01-07T07:48:51.741Z,67.50
2023-01-07T07:53:56.717Z,66.66
2023-01-07T07:58:59.025Z,66.49
2023-01-07T08:04:02.010Z,64.73
2023-01-07T08:09:04.378Z,64.52
2023-01-07T08:14:06.685Z,64.96
2023-01-07T08:19:08.900Z,65.43
2023-01-07T08:24:12.271Z,65.78
2023-01-07T08:29:16.734Z,65.99
2023-01-07T08:34:19.086Z,66.35
2023-01-07T08:39:21.338Z,66.61
2023-01-07T08:44:23.714Z,66.55
2023-01-07T08:49:25.939Z,66.72
2023-01-07T08:54:28.325Z,66.81
2023-01-07T08:59:30.843Z,66.85
2023-01-07T09:04:33.086Z,67.10
2023-01-07T09:09:35.391Z,67.01
2023-01-07T09:14:37.794Z,67.09
2023-01-07T09:19:40.003Z,67.07
2023-01-07T09:24:42.214Z,67.07
2023-01-07T09:29:44.459Z,67.41
2023-01-07T09:34:46.839Z,67.51
2023-01-07T09:39:49.261Z,67.49
2023-01-07T09:44:57.467Z,67.44
2023-01-07T09:50:07.874Z,67.27
2023-01-07T09:55:21.742Z,67.50
2023-01-07T10:00:25.175Z,67.64
2023-01-07T10:05:49.812Z,67.54
2023-01-07T10:11:10.049Z,67.50
2023-01-07T10:16:42.980Z,67.49
2023-01-07T10:21:54.280Z,67.35
2023-01-07T10:26:59.324Z,67.51
2023-01-07T10:32:15.999Z,67.82
2023-01-07T10:37:35.488Z,67.73
2023-01-07T10:42:45.190Z,67.61
2023-01-07T10:48:06.613Z,67.75
2023-01-07T10:53:27.543Z,67.84
2023-01-07T10:58:43.856Z,67.86
2023-01-07T11:03:49.739Z,67.76
2023-01-07T11:08:53.566Z,67.76
2023-01-07T11:14:10.973Z,67.74
2023-01-07T11:19:13.539Z,67.95
2023-01-07T11:24:28.842Z,68.04
2023-01-07T11:29:59.202Z,67.97
2023-01-07T11:35:23.253Z,67.88
2023-01-07T11:40:32.933Z,67.76
2023-01-07T11:46:20.542Z,68.02
2023-01-07T11:51:12.402Z,68.03
2023-01-07T11:56:40.296Z,67.84
2023-01-07T12:01:46.970Z,67.86
2023-01-07T12:06:51.423Z,67.92
2023-01-07T12:11:55.595Z,67.99
2023-01-07T12:17:15.756Z,67.76
2023-01-07T12:22:44.589Z,67.96
2023-01-07T12:27:54.771Z,67.81
2023-01-07T12:32:59.981Z,68.08
2023-01-07T12:38:20.507Z,67.98
2023-01-07T12:43:38.480Z,68.16
2023-01-07T12:49:16.556Z,68.19
2023-01-07T12:54:28.121Z,68.15
2023-01-07T12:59:48.073Z,67.83
2023-01-07T13:04:58.888Z,68.02
2023-01-07T13:10:19.870Z,68.19
2023-01-07T13:15:27.509Z,68.12
2023-01-07T13:21:15.985Z,67.97
2023-01-07T13:26:45.912Z,68.26
2023-01-07T13:32:19.352Z,68.31
2023-01-07T13:37:48.409Z,68.15
2023-01-07T13:43:33.255Z,68.42
2023-01-07T13:48:38.759Z,68.32
2023-01-07T13:53:45.455Z,68.33
2023-01-07T13:58:50.635Z,68.38
2023-01-07T14:04:08.492Z,68.41
2023-01-07T14:09:20.609Z,68.33
2023-01-07T14:14:52.514Z,68.31
2023-01-07T14:20:23.046Z,68.69
2023-01-07T14:25:54.356Z,68.66
2023-01-07T14:30:58.741Z,68.43
2023-01-07T14:36:06.763Z,68.39
2023-01-07T14:41:09.999Z,68.61
2023-01-07T14:46:24.813Z,68.42
2023-01-07T14:52:20.389Z,68.47
2023-01-07T14:57:37.796Z,68.38
2023-01-07T15:03:25.297Z,68.40
2023-01-07T15:08:58.450Z,68.21
2023-01-07T15:14:24.528Z,68.32
2023-01-07T15:19:27.026Z,68.37
2023-01-07T15:24:38.485Z,68.24
2023-01-07T15:29:56.539Z,68.42
2023-01-07T15:35:25.716Z,68.42
2023-01-07T15:40:32.783Z,68.42
2023-01-07T15:45:35.260Z,68.31
2023-01-07T15:50:47.217Z,68.50
2023-01-07T15:56:03.019Z,68.46
2023-01-07T16:01:11.880Z,68.27
2023-01-07T16:06:36.863Z,68.30
2023-01-07T16:11:41.612Z,68.55
2023-01-07T16:17:07.988Z,68.27
2023-01-07T16:22:18.041Z,68.29
2023-01-07T16:27:29.836Z,68.41
2023-01-07T16:32:36.319Z,68.36
2023-01-07T16:37:49.696Z,68.18
2023-01-07T16:42:54.529Z,68.21
2023-01-07T16:48:19.602Z,68.19
2023-01-07T16:53:35.526Z,68.10
2023-01-07T16:58:54.304Z,68.28
2023-01-07T17:03:59.403Z,68.48
2023-01-07T17:09:02.265Z,68.31
2023-01-07T17:14:25.820Z,68.24
2023-01-07T17:19:50.174Z,68.18
2023-01-07T17:25:21.033Z,68.17
2023-01-07T17:31:17.277Z,68.23
2023-01-07T17:36:24.998Z,68.43
2023-01-07T17:41:46.341Z,68.47
2023-01-07T17:46:49.312Z,68.18
2023-01-07T17:51:54.506Z,68.20
2023-01-07T17:56:57.765Z,68.08
2023-01-07T18:02:02.342Z,68.28
2023-01-07T18:07:05.550Z,68.32
2023-01-07T18:12:37.096Z,68.25
2023-01-07T18:17:39.863Z,68.09
2023-01-07T18:22:43.464Z,68.24
2023-01-07T18:27:53.014Z,68.19
2023-01-07T18:32:55.947Z,68.01
2023-01-07T18:37:58.771Z,67.99
2023-01-07T18:43:20.308Z,67.99
2023-01-07T18:48:23.092Z,68.14
2023-01-07T18:53:27.977Z,67.87
2023-01-07T18:58:32.283Z,68.01
2023-01-07T19:03:51.603Z,68.29
2023-01-07T19:08:55.961Z,68.23
2023-01-07T19:13:58.719Z,68.42
2023-01-07T19:19:01.433Z,68.12
2023-01-07T19:24:07.381Z,68.09
2023-01-07T19:29:13.225Z,68.10
2023-01-07T19:34:19.999Z,67.92
2023-01-07T19:39:24.340Z,68.06
2023-01-07T19:44:27.108Z,68.16
2023-01-07T19:49:30.940Z,68.28
2023-01-07T19:54:36.451Z,68.02
2023-01-07T19:59:46.876Z,68.03
2023-01-07T20:04:51.460Z,68.40
2023-01-07T20:09:58.357Z,68.25
2023-01-07T20:15:00.953Z,67.99
2023-01-07T20:20:08.435Z,68.10
2023-01-07T20:25:13.900Z,68.09
2023-01-07T20:30:16.881Z,68.28
2023-01-07T20:35:21.272Z,68.34
2023-01-07T20:40:25.986Z,68.38
2023-01-07T20:45:29.985Z,68.07
2023-01-07T20:50:35.906Z,68.12
2023-01-07T20:55:40.169Z,68.07
2023-01-07T21:00:42.741Z,68.18
2023-01-07T21:05:47.642Z,68.09
2023-01-07T21:10:50.636Z,68.28
2023-01-07T21:15:54.863Z,68.30
2023-01-07T21:21:01.061Z,68.10
2023-01-07T21:26:06.361Z,67.88
2023-01-07T21:31:17.359Z,68.43
2023-01-07T21:36:22.440Z,68.26
2023-01-07T21:41:29.504Z,68.35
2023-01-07T21:46:33.823Z,68.01
2023-01-07T21:51:39.246Z,68.21
2023-01-07T21:56:42.902Z,68.07
2023-01-07T22:01:50.058Z,68.01
2023-01-07T22:06:54.541Z,68.03
2023-01-07T22:11:56.897Z,68.21
2023-01-07T22:16:59.245Z,68.32
2023-01-07T22:22:04.617Z,67.90
2023-01-07T22:27:07.064Z,68.01
2023-01-07T22:32:10.656Z,68.07
2023-01-07T22:37:16.176Z,68.22
2023-01-07T22:42:34.401Z,68.12
2023-01-07T22:47:40.064Z,68.18
2023-01-07T22:52:43.976Z,67.93
2023-01-07T22:57:46.417Z,68.05
2023-01-07T23:02:50.046Z,67.81
2023-01-07T23:07:53.689Z,67.88
2023-01-07T23:12:56.083Z,67.94
2023-01-07T23:17:58.426Z,68.05
2023-01-07T23:23:01.998Z,67.90
2023-01-07T23:28:07.239Z,68.30
2023-01-07T23:33:11.005Z,68.38
2023-01-07T23:38:14.276Z,67.96
2023-01-07T23:43:17.848Z,68.04
2023-01-07T23:48:20.369Z,68.09
2023-01-07T23:53:27.947Z,68.13
2023-01-07T23:58:33.465Z,68.28
